createdAt,value
2022-08-04T00:03:14.961Z,75.22
2022-08-04T00:06:05.604Z,75.12
2022-08-04T00:08:55.732Z,76.18
2022-08-04T00:11:27.246Z,75.79
2022-08-04T00:14:03.998Z,76.09
2022-08-04T00:16:41.407Z,76.15
2022-08-04T00:19:17.766Z,76.93
2022-08-04T00:21:54.106Z,76.22
2022-08-04T00:24:22.625Z,76.88
2022-08-04T00:26:53.686Z,77.46
2022-08-04T00:29:22.639Z,78.25
2022-08-04T00:31:54.951Z,78.29
2022-08-04T00:34:27.663Z,77.69
2022-08-04T00:36:56.253Z,77.01
2022-08-04T00:39:24.427Z,76.35
2022-08-04T00:42:34.558Z,77.62
2022-08-04T00:46:12.532Z,79.30
2022-08-04T00:48:57.453Z,80.99
2022-08-04T00:52:32.013Z,79.87
2022-08-04T00:55:09.083Z,79.45
2022-08-04T00:58:04.160Z,80.11
2022-08-04T01:01:05.126Z,79.70
2022-08-04T01:03:56.589Z,80.36
2022-08-04T01:06:56.146Z,80.38
2022-08-04T01:09:49.685Z,79.77
2022-08-04T01:12:53.070Z,79.08
2022-08-04T01:16:00.178Z,79.02
2022-08-04T01:18:52.021Z,78.65
2022-08-04T01:21:31.021Z,79.24
2022-08-04T01:24:20.041Z,79.25
2022-08-04T01:27:26.957Z,79.93
2022-08-04T01:29:59.586Z,79.55
2022-08-04T01:32:59.880Z,79.46
2022-08-04T01:35:47.206Z,79.46
2022-08-04T01:38:39.597Z,80.03
2022-08-04T01:41:14.376Z,81.29
2022-08-04T01:43:44.174Z,82.33
2022-08-04T01:46:14.570Z,82.17
2022-08-04T01:48:45.556Z,82.46
2022-08-04T01:51:12.711Z,83.51
2022-08-04T01:53:44.813Z,83.85
2022-08-04T01:56:13.101Z,83.33
2022-08-04T01:58:41.370Z,82.05
2022-08-04T02:01:13.047Z,82.56
2022-08-04T02:04:18.276Z,83.06
2022-08-04T02:06:48.412Z,83.72
2022-08-04T02:09:55.582Z,82.88
2022-08-04T02:12:40.238Z,82.66
2022-08-04T02:15:14.685Z,84.24
2022-08-04T02:17:51.097Z,84.51
2022-08-04T02:20:36.274Z,83.55
2022-08-04T02:23:15.191Z,84.80
2022-08-04T02:25:50.502Z,84.97
2022-08-04T02:28:59.925Z,85.93
2022-08-04T02:31:29.722Z,85.95
2022-08-04T02:34:06.107Z,85.34
2022-08-04T02:36:42.671Z,86.62
2022-08-04T02:39:13.891Z,86.27
2022-08-04T02:41:41.318Z,85.98
2022-08-04T02:44:10.647Z,86.23
2022-08-04T02:46:39.325Z,85.04
2022-08-04T02:49:10.845Z,83.66
2022-08-04T02:51:44.357Z,83.12
2022-08-04T02:54:11.514Z,83.67
2022-08-04T02:56:40.400Z,85.07
2022-08-04T02:59:10.992Z,85.55
2022-08-04T03:01:56.993Z,87.18
2022-08-04T03:04:47.930Z,88.10
2022-08-04T03:07:35.373Z,87.48
2022-08-04T03:10:21.990Z,87.33
2022-08-04T03:13:28.857Z,86.07
2022-08-04T03:16:16.180Z,85.85
2022-08-04T03:19:24.110Z,86.44
2022-08-04T03:22:30.903Z,87.12
2022-08-04T03:25:21.950Z,87.04
2022-08-04T03:28:13.004Z,87.28
2022-08-04T03:31:21.411Z,87.30
2022-08-04T03:34:00.283Z,89.22
2022-08-04T03:37:17.893Z,89.61
2022-08-04T03:40:21.712Z,88.70
2022-08-04T03:43:58.043Z,89.70
2022-08-04T03:46:52.451Z,90.33
2022-08-04T03:49:49.837Z,90.35
2022-08-04T03:53:09.791Z,88.38
2022-08-04T03:55:54.613Z,87.20
2022-08-04T03:58:43.948Z,86.06
2022-08-04T04:02:01.133Z,85.30
2022-08-04T04:05:01.020Z,86.34
2022-08-04T04:08:18.732Z,86.94
2022-08-04T04:11:07.874Z,87.95
2022-08-04T04:13:49.593Z,87.75
2022-08-04T04:16:43.546Z,88.89
2022-08-04T04:19:45.536Z,89.99
2022-08-04T04:22:25.838Z,88.27
2022-08-04T04:25:09.770Z,88.43
2022-08-04T04:28:43.647Z,88.09
2022-08-04T04:31:52.479Z,87.00
2022-08-04T04:34:37.464Z,87.17
2022-08-04T04:37:56.788Z,86.34
2022-08-04T04:40:39.508Z,85.63
2022-08-04T04:43:51.043Z,85.73
2022-08-04T04:46:46.467Z,86.41
2022-08-04T04:49:41.042Z,87.14
2022-08-04T04:52:47.990Z,88.36
2022-08-04T04:55:29.522Z,89.32
2022-08-04T04:58:00.710Z,88.51
2022-08-04T05:01:07.520Z,87.23
2022-08-04T05:03:45.959Z,88.62
2022-08-04T05:06:39.612Z,87.22
2022-08-04T05:09:27.565Z,87.14
2022-08-04T05:14:32.845Z,87.07
2022-08-04T05:15:32.337Z,86.30
2022-08-04T05:18:02.478Z,86.51
2022-08-04T05:20:39.424Z,86.01
2022-08-04T05:23:41.788Z,85.63
2022-08-04T05:26:13.979Z,85.47
2022-08-04T05:28:53.969Z,86.10
2022-08-04T05:31:26.742Z,85.36
2022-08-04T05:33:59.024Z,85.31
2022-08-04T05:36:41.245Z,85.07
2022-08-04T05:39:16.106Z,84.91
2022-08-04T05:41:45.276Z,84.98
2022-08-04T05:44:15.777Z,85.14
2022-08-04T05:46:45.657Z,85.25
2022-08-04T05:49:23.180Z,84.91
2022-08-04T05:51:51.343Z,84.98
2022-08-04T05:54:19.057Z,84.59
2022-08-04T05:56:46.568Z,83.89
2022-08-04T05:59:14.548Z,83.65
2022-08-04T06:01:55.345Z,83.46
2022-08-04T06:04:26.844Z,83.01
2022-08-04T06:06:54.726Z,82.23
2022-08-04T06:09:21.674Z,81.79
2022-08-04T06:12:00.465Z,81.36
2022-08-04T06:14:39.825Z,81.20
2022-08-04T06:18:33.173Z,81.51
2022-08-04T06:20:20.275Z,81.43
2022-08-04T06:22:47.397Z,81.07
2022-08-04T06:25:22.005Z,81.17
2022-08-04T06:27:51.292Z,80.43
2022-08-04T06:30:20.008Z,81.37
2022-08-04T06:33:03.519Z,81.02
2022-08-04T06:35:33.126Z,80.63
2022-08-04T06:38:01.984Z,80.24
2022-08-04T06:40:32.433Z,80.07
2022-08-04T06:43:07.165Z,80.01
2022-08-04T06:45:37.651Z,80.01
2022-08-04T06:48:07.015Z,80.58
2022-08-04T06:51:26.238Z,80.39
2022-08-04T06:53:26.575Z,80.60
2022-08-04T06:55:54.685Z,80.85
2022-08-04T06:58:22.845Z,79.09
2022-08-04T07:00:50.432Z,78.79
2022-08-04T07:03:19.476Z,78.69
2022-08-04T07:05:50.198Z,77.76
2022-08-04T07:08:17.311Z,77.02
2022-08-04T07:10:45.723Z,76.29
2022-08-04T07:13:13.141Z,75.47
2022-08-04T07:15:45.272Z,75.35
2022-08-04T07:18:12.187Z,74.70
2022-08-04T07:20:46.884Z,74.78
2022-08-04T07:23:17.878Z,74.56
2022-08-04T07:26:00.956Z,73.39
2022-08-04T07:28:40.813Z,71.27
2022-08-04T07:31:33.921Z,69.83
2022-08-04T07:34:20.737Z,68.58
2022-08-04T07:36:51.302Z,68.70
2022-08-04T07:39:27.637Z,68.13
2022-08-04T07:42:02.242Z,68.01
2022-08-04T07:44:32.096Z,66.82
2022-08-04T07:47:00.766Z,67.00
2022-08-04T07:49:54.703Z,66.83
2022-08-04T07:52:14.950Z,66.66
2022-08-04T07:54:42.557Z,66.63
2022-08-04T07:57:09.444Z,64.86
2022-08-04T07:59:56.580Z,61.36
2022-08-04T08:02:24.062Z,63.20
2022-08-04T08:04:52.630Z,61.41
2022-08-04T08:07:21.003Z,57.74
2022-08-04T08:09:48.223Z,56.00
2022-08-04T08:12:35.823Z,54.52
2022-08-04T08:15:03.344Z,54.77
2022-08-04T08:17:30.108Z,55.72
2022-08-04T08:19:56.903Z,53.42
2022-08-04T08:22:23.917Z,51.13
2022-08-04T08:24:50.834Z,51.44
2022-08-04T08:27:17.874Z,50.11
2022-08-04T08:29:45.437Z,49.17
2022-08-04T08:32:14.137Z,48.29
2022-08-04T08:34:45.441Z,47.48
2022-08-04T08:37:35.207Z,47.53
2022-08-04T08:40:40.858Z,46.01
2022-08-04T08:44:03.706Z,45.76
2022-08-04T08:46:52.322Z,46.14
2022-08-04T08:50:02.821Z,45.89
2022-08-04T08:53:02.051Z,45.38
2022-08-04T08:55:46.610Z,46.00
2022-08-04T08:58:59.717Z,45.76
2022-08-04T09:02:10.670Z,43.92
2022-08-04T09:05:01.177Z,43.02
2022-08-04T09:07:54.895Z,42.56
2022-08-04T09:10:46.972Z,42.80
2022-08-04T09:13:27.778Z,42.20
2022-08-04T09:16:22.541Z,41.59
2022-08-04T09:19:00.451Z,41.58
2022-08-04T09:21:36.934Z,41.13
2022-08-04T09:24:35.066Z,41.20
2022-08-04T09:27:10.744Z,40.97
2022-08-04T09:30:06.853Z,40.12
2022-08-04T09:32:41.413Z,40.65
2022-08-04T09:35:26.423Z,40.51
2022-08-04T09:38:30.999Z,40.85
2022-08-04T09:42:01.306Z,40.05
2022-08-04T09:44:52.101Z,40.10
2022-08-04T09:47:39.901Z,40.06
2022-08-04T09:50:39.140Z,39.50
2022-08-04T09:53:11.666Z,38.26
2022-08-04T09:55:55.341Z,38.60
2022-08-04T09:59:01.340Z,38.09
2022-08-04T10:01:32.206Z,39.03
2022-08-04T10:04:05.129Z,38.24
2022-08-04T10:07:31.503Z,37.59
2022-08-04T10:10:20.214Z,37.00
2022-08-04T10:12:56.124Z,36.87
2022-08-04T10:15:42.821Z,35.98
2022-08-04T10:18:40.630Z,35.57
2022-08-04T10:21:27.518Z,36.06
2022-08-04T10:24:19.159Z,36.10
2022-08-04T10:27:41.634Z,36.46
2022-08-04T10:30:13.622Z,37.02
2022-08-04T10:33:03.174Z,35.41
2022-08-04T10:35:39.092Z,34.21
2022-08-04T10:38:29.492Z,34.68
2022-08-04T10:41:09.358Z,34.77
2022-08-04T10:43:36.082Z,34.84
2022-08-04T10:46:13.199Z,33.68
2022-08-04T10:48:51.646Z,33.82
2022-08-04T10:51:57.290Z,34.13
2022-08-04T10:54:48.380Z,33.93
2022-08-04T10:57:25.956Z,33.21
2022-08-04T11:00:03.498Z,32.52
2022-08-04T11:02:43.977Z,32.93
2022-08-04T11:05:43.660Z,33.57
2022-08-04T11:08:20.729Z,32.53
2022-08-04T11:11:05.136Z,33.33
2022-08-04T11:13:57.090Z,33.02
2022-08-04T11:16:30.402Z,33.07
2022-08-04T11:19:44.825Z,31.72
2022-08-04T11:22:23.063Z,32.13
2022-08-04T11:25:15.072Z,31.23
2022-08-04T11:28:13.828Z,30.71
2022-08-04T11:30:51.841Z,29.09
2022-08-04T11:33:34.689Z,28.71
2022-08-04T11:36:28.050Z,28.84
2022-08-04T11:39:18.677Z,29.09
2022-08-04T11:42:14.440Z,28.86
2022-08-04T11:45:04.719Z,29.04
2022-08-04T11:47:44.164Z,28.98
2022-08-04T11:50:33.138Z,29.02
2022-08-04T11:53:00.888Z,27.86
2022-08-04T11:55:29.237Z,28.21
2022-08-04T11:57:57.057Z,27.90
2022-08-04T12:00:28.556Z,28.17
2022-08-04T12:03:44.753Z,26.14
2022-08-04T12:06:56.857Z,25.74
2022-08-04T12:09:49.129Z,26.93
2022-08-04T12:12:43.459Z,25.05
2022-08-04T12:15:20.934Z,25.71
2022-08-04T12:18:08.387Z,25.10
2022-08-04T12:20:44.072Z,25.10
2022-08-04T12:23:22.928Z,25.00
2022-08-04T12:25:56.573Z,25.57
2022-08-04T12:29:08.053Z,25.65
2022-08-04T12:31:54.822Z,24.54
2022-08-04T12:34:35.649Z,24.64
2022-08-04T12:37:27.629Z,25.39
2022-08-04T12:40:28.634Z,25.56
2022-08-04T12:43:39.288Z,25.28
2022-08-04T12:46:09.695Z,26.28
2022-08-04T12:48:38.857Z,25.46
2022-08-04T12:52:06.177Z,25.32
2022-08-04T12:53:56.707Z,25.26
2022-08-04T12:56:27.883Z,25.56
2022-08-04T12:59:07.150Z,24.81
2022-08-04T13:02:07.163Z,24.58
2022-08-04T13:04:29.694Z,24.08
2022-08-04T13:07:26.820Z,23.94
2022-08-04T13:09:53.772Z,23.63
2022-08-04T13:12:32.081Z,23.26
2022-08-04T13:15:17.611Z,24.14
2022-08-04T13:17:53.521Z,23.53
2022-08-04T13:20:44.124Z,23.41
2022-08-04T13:23:21.984Z,22.50
2022-08-04T13:26:43.479Z,22.19
2022-08-04T13:28:42.934Z,22.34
2022-08-04T13:31:16.961Z,23.00
2022-08-04T13:33:48.021Z,22.77
2022-08-04T13:36:17.898Z,22.33
2022-08-04T13:38:58.865Z,21.59
2022-08-04T13:41:31.127Z,22.40
2022-08-04T13:44:19.244Z,23.09
2022-08-04T13:46:58.933Z,22.02
2022-08-04T13:49:37.716Z,22.46
2022-08-04T13:52:12.693Z,21.81
2022-08-04T13:54:47.306Z,21.84
2022-08-04T13:57:30.560Z,21.92
2022-08-04T14:00:08.197Z,22.12
2022-08-04T14:02:44.725Z,22.78
2022-08-04T14:05:36.935Z,23.14
2022-08-04T14:08:29.116Z,23.01
2022-08-04T14:10:58.936Z,22.50
2022-08-04T14:13:41.218Z,20.82
2022-08-04T14:16:20.173Z,21.12
2022-08-04T14:18:48.106Z,20.93
2022-08-04T14:21:17.648Z,20.86
2022-08-04T14:23:51.499Z,21.57
2022-08-04T14:26:32.510Z,21.38
2022-08-04T14:29:26.570Z,21.26
2022-08-04T14:32:10.571Z,20.88
2022-08-04T14:34:41.253Z,22.14
2022-08-04T14:37:16.349Z,22.75
2022-08-04T14:40:19.365Z,21.64
2022-08-04T14:42:54.297Z,22.45
2022-08-04T14:45:35.864Z,22.13
2022-08-04T14:48:14.593Z,22.53
2022-08-04T14:50:44.502Z,21.91
2022-08-04T14:53:29.482Z,22.39
2022-08-04T14:55:59.900Z,21.95
2022-08-04T14:58:33.800Z,21.61
2022-08-04T15:01:10.549Z,21.20
2022-08-04T15:03:50.317Z,21.76
2022-08-04T15:06:29.245Z,21.67
2022-08-04T15:09:08.211Z,20.85
2022-08-04T15:11:41.451Z,20.53
2022-08-04T15:14:16.324Z,20.81
2022-08-04T15:16:57.481Z,21.12
2022-08-04T15:19:25.295Z,21.32
2022-08-04T15:21:52.930Z,20.40
2022-08-04T15:24:19.764Z,20.91
2022-08-04T15:26:52.411Z,21.52
2022-08-04T15:29:58.990Z,20.97
2022-08-04T15:32:35.174Z,21.51
2022-08-04T15:35:08.602Z,21.46
2022-08-04T15:38:00.112Z,21.52
2022-08-04T15:40:49.644Z,21.75
2022-08-04T15:43:25.353Z,21.67
2022-08-04T15:46:32.884Z,21.56
2022-08-04T15:48:39.910Z,21.11
2022-08-04T15:51:15.408Z,21.20
2022-08-04T15:54:02.658Z,20.90
2022-08-04T15:56:30.319Z,21.84
2022-08-04T15:58:58.740Z,21.61
2022-08-04T16:01:27.749Z,21.45
2022-08-04T16:04:01.002Z,21.97
2022-08-04T16:06:28.972Z,21.80
2022-08-04T16:09:02.156Z,22.41
2022-08-04T16:11:32.959Z,22.50
2022-08-04T16:14:02.717Z,22.90
2022-08-04T16:16:48.012Z,22.75
2022-08-04T16:19:42.152Z,23.24
2022-08-04T16:22:13.905Z,22.84
2022-08-04T16:24:43.291Z,22.04
2022-08-04T16:27:12.469Z,22.55
2022-08-04T16:29:42.256Z,22.53
2022-08-04T16:32:23.048Z,22.68
2022-08-04T16:34:54.746Z,22.59
2022-08-04T16:37:36.057Z,22.98
2022-08-04T16:40:38.783Z,23.52
2022-08-04T16:43:07.501Z,23.26
2022-08-04T16:46:04.065Z,23.56
2022-08-04T16:48:33.782Z,23.88
2022-08-04T16:51:06.852Z,23.85
2022-08-04T16:53:53.392Z,24.09
2022-08-04T16:56:33.417Z,23.34
2022-08-04T16:59:10.379Z,23.79
2022-08-04T17:01:39.493Z,23.95
2022-08-04T17:04:07.231Z,23.93
2022-08-04T17:06:40.602Z,23.89
2022-08-04T17:09:13.640Z,24.06
2022-08-04T17:11:42.793Z,23.89
2022-08-04T17:14:09.982Z,24.23
2022-08-04T17:16:41.010Z,24.26
2022-08-04T17:19:23.622Z,23.71
2022-08-04T17:22:04.657Z,23.46
2022-08-04T17:24:35.010Z,24.22
2022-08-04T17:27:04.310Z,24.86
2022-08-04T17:29:49.197Z,24.87
2022-08-04T17:32:22.221Z,24.81
2022-08-04T17:34:53.606Z,25.00
2022-08-04T17:37:40.087Z,25.70
2022-08-04T17:40:22.521Z,25.79
2022-08-04T17:44:03.431Z,26.02
2022-08-04T17:49:25.399Z,29.24
2022-08-04T17:52:06.418Z,30.11
2022-08-04T17:54:40.626Z,30.99
2022-08-04T17:57:21.327Z,31.57
2022-08-04T17:59:59.352Z,32.40
2022-08-04T18:02:34.719Z,33.32
2022-08-04T18:05:10.028Z,33.64
2022-08-04T18:08:40.590Z,34.37
2022-08-04T18:10:51.709Z,34.57
2022-08-04T18:13:28.208Z,34.79
2022-08-04T18:16:12.684Z,35.37
2022-08-04T18:19:18.940Z,36.02
2022-08-04T18:21:59.829Z,36.83
2022-08-04T18:24:55.757Z,37.29
2022-08-04T18:27:25.213Z,38.11
2022-08-04T18:30:14.557Z,38.17
2022-08-04T18:33:10.117Z,38.79
2022-08-04T18:36:35.436Z,39.62
2022-08-04T18:38:22.329Z,39.54
2022-08-04T18:40:52.912Z,40.47
2022-08-04T18:43:27.931Z,40.91
2022-08-04T18:45:57.327Z,41.36
2022-08-04T18:48:36.287Z,41.53
2022-08-04T18:51:22.519Z,40.99
2022-08-04T18:53:55.412Z,42.07
2022-08-04T18:56:31.843Z,41.88
2022-08-04T18:59:10.193Z,42.10
2022-08-04T19:02:09.226Z,43.97
2022-08-04T19:04:32.924Z,44.76
2022-08-04T19:07:28.978Z,46.27
2022-08-04T19:09:52.302Z,45.92
2022-08-04T19:12:26.714Z,46.43
2022-08-04T19:14:55.395Z,46.43
2022-08-04T19:17:56.679Z,47.11
2022-08-04T19:20:25.143Z,47.34
2022-08-04T19:24:11.230Z,47.81
2022-08-04T19:26:03.814Z,48.11
2022-08-04T19:28:36.874Z,49.00
2022-08-04T19:31:11.427Z,48.99
2022-08-04T19:33:58.128Z,48.49
2022-08-04T19:36:32.733Z,49.31
2022-08-04T19:39:09.265Z,49.11
2022-08-04T19:42:06.106Z,50.76
2022-08-04T19:44:29.902Z,51.04
2022-08-04T19:47:00.648Z,51.34
2022-08-04T19:50:03.656Z,53.53
2022-08-04T19:52:33.218Z,54.39
2022-08-04T19:55:09.858Z,55.19
2022-08-04T19:57:49.556Z,54.67
2022-08-04T20:00:32.841Z,54.32
2022-08-04T20:03:13.519Z,54.12
2022-08-04T20:05:53.492Z,53.76
2022-08-04T20:08:21.839Z,53.19
2022-08-04T20:10:52.004Z,53.82
2022-08-04T20:13:20.841Z,54.17
2022-08-04T20:15:55.311Z,54.16
2022-08-04T20:18:35.473Z,54.55
2022-08-04T20:21:19.718Z,54.72
2022-08-04T20:23:52.751Z,54.92
2022-08-04T20:26:20.595Z,55.29
2022-08-04T20:28:51.822Z,55.23
2022-08-04T20:31:19.421Z,55.63
2022-08-04T20:36:33.993Z,58.17
2022-08-04T20:39:03.144Z,58.04
2022-08-04T20:41:36.931Z,58.10
2022-08-04T20:44:11.850Z,58.01
2022-08-04T20:46:39.105Z,57.80
2022-08-04T20:49:06.546Z,58.29
2022-08-04T20:51:45.365Z,58.38
2022-08-04T20:54:26.367Z,59.18
2022-08-04T20:56:54.137Z,59.04
2022-08-04T20:59:21.162Z,60.23
2022-08-04T21:01:49.585Z,60.46
2022-08-04T21:04:34.833Z,60.24
2022-08-04T21:07:10.237Z,60.13
2022-08-04T21:09:42.437Z,60.59
2022-08-04T21:12:27.951Z,61.40
2022-08-04T21:15:13.547Z,61.65
2022-08-04T21:17:58.206Z,61.35
2022-08-04T21:20:39.517Z,62.33
2022-08-04T21:23:09.759Z,62.28
2022-08-04T21:26:01.086Z,64.62
2022-08-04T21:28:29.501Z,65.87
2022-08-04T21:30:59.766Z,67.50
2022-08-04T21:33:50.603Z,67.74
2022-08-04T21:36:19.707Z,66.59
2022-08-04T21:38:51.369Z,68.69
2022-08-04T21:41:25.015Z,69.88
2022-08-04T21:43:55.055Z,68.60
2022-08-04T21:46:22.542Z,69.54
2022-08-04T21:48:49.562Z,69.21
2022-08-04T21:51:59.261Z,68.30
2022-08-04T21:54:15.188Z,67.55
2022-08-04T21:56:50.765Z,66.88
2022-08-04T21:59:18.932Z,66.40
2022-08-04T22:02:00.336Z,66.98
2022-08-04T22:04:28.585Z,69.05
2022-08-04T22:06:57.612Z,69.54
2022-08-04T22:09:24.587Z,69.17
2022-08-04T22:11:55.954Z,69.71
2022-08-04T22:14:29.201Z,69.92
2022-08-04T22:17:01.791Z,68.32
2022-08-04T22:19:50.298Z,68.24
2022-08-04T22:22:25.314Z,68.13
2022-08-04T22:24:58.430Z,67.11
2022-08-04T22:27:55.508Z,68.35
2022-08-04T22:34:18.584Z,68.42
2022-08-04T22:36:46.241Z,71.18
2022-08-04T22:39:13.324Z,71.13
2022-08-04T22:41:48.579Z,69.99
2022-08-04T22:44:16.448Z,69.07
2022-08-04T22:46:43.477Z,68.82
2022-08-04T22:49:12.646Z,68.93
2022-08-04T22:51:39.795Z,68.35
2022-08-04T22:54:15.375Z,68.24
2022-08-04T22:56:42.469Z,69.55
2022-08-04T22:59:13.024Z,69.29
2022-08-04T23:02:00.456Z,69.39
2022-08-04T23:04:34.704Z,68.74
2022-08-04T23:07:05.187Z,69.72
2022-08-04T23:09:50.711Z,73.28
2022-08-04T23:12:27.217Z,73.25
2022-08-04T23:14:59.576Z,74.04
2022-08-04T23:17:28.608Z,73.82
2022-08-04T23:19:59.246Z,74.61
2022-08-04T23:22:41.070Z,75.20
2022-08-04T23:25:15.102Z,75.04
2022-08-04T23:27:50.938Z,73.82
2022-08-04T23:30:29.966Z,72.78
2022-08-04T23:32:58.390Z,72.16
2022-08-04T23:35:25.324Z,71.13
2022-08-04T23:37:56.176Z,71.07
2022-08-04T23:40:34.385Z,71.14
2022-08-04T23:43:10.539Z,71.33
2022-08-04T23:46:04.342Z,72.72
2022-08-04T23:48:36.801Z,73.32
2022-08-04T23:51:14.981Z,72.93
2022-08-04T23:54:02.526Z,74.33
2022-08-04T23:56:35.695Z,74.71
2022-08-04T23:59:05.288Z,77.06
